Time;durP1;ratioP1;P1;durP2;ratioP2;P2;SDS_P1;SDS_P2;PMS_P1;PMS_P2;Temp;Humidity;BMP_temperature;BMP_pressure;BME280_temperature;BME280_humidity;BME280_pressure;Samples;Min_cycle;Max_cycle;Signal;HPM_P1;HPM_P2
2022/07/16 00:02:21;;;;;;;6.00;2.85;;;16.10;99.90;;;;;;5086508;28;20100;-69
2022/07/16 00:04:46;;;;;;;3.22;1.92;;;16.10;99.90;;;;;;5067638;28;20075;-69
2022/07/16 00:07:12;;;;;;;4.25;1.98;;;16.00;99.90;;;;;;5067200;28;20261;-69
2022/07/16 00:09:38;;;;;;;3.95;2.20;;;16.00;99.90;;;;;;5052284;28;20055;-69
2022/07/16 00:12:04;;;;;;;3.05;2.13;;;15.90;99.90;;;;;;5067024;28;20040;-69
2022/07/16 00:14:30;;;;;;;6.95;2.38;;;15.90;99.90;;;;;;5067652;28;20040;-69
2022/07/16 00:16:56;;;;;;;3.63;2.38;;;15.90;99.90;;;;;;5084033;28;20047;-69
2022/07/16 00:19:23;;;;;;;4.40;2.15;;;15.80;99.90;;;;;;5063861;28;20051;-69
2022/07/16 00:21:52;;;;;;;5.43;2.63;;;15.70;99.90;;;;;;5067686;28;20048;-69
2022/07/16 00:24:18;;;;;;;5.43;2.80;;;15.70;99.90;;;;;;5067987;28;20051;-69
2022/07/16 00:26:44;;;;;;;4.07;2.60;;;15.70;99.90;;;;;;5086080;28;20048;-69
2022/07/16 00:29:11;;;;;;;3.75;2.30;;;15.70;99.90;;;;;;5068351;28;20408;-69
2022/07/16 00:31:37;;;;;;;3.95;2.28;;;15.70;99.90;;;;;;5067216;28;20075;-69
2022/07/16 00:34:06;;;;;;;4.03;2.03;;;15.70;99.90;;;;;;5084609;28;20052;-69
2022/07/16 00:36:33;;;;;;;4.60;2.47;;;15.80;99.90;;;;;;5065563;28;20385;-69
2022/07/16 00:38:59;;;;;;;2.85;2.15;;;15.80;99.90;;;;;;5083454;28;20040;-69
2022/07/16 00:41:25;;;;;;;3.85;2.40;;;15.90;99.90;;;;;;5051484;28;20141;-69
2022/07/16 00:43:57;;;;;;;4.47;2.08;;;15.90;99.90;;;;;;5066629;28;20037;-69
2022/07/16 00:46:23;;;;;;;4.90;2.20;;;15.90;99.90;;;;;;5066613;28;20051;-69
2022/07/16 00:48:49;;;;;;;7.32;2.58;;;15.90;99.90;;;;;;5066711;28;20076;-69
2022/07/16 00:51:15;;;;;;;3.72;2.15;;;15.90;99.90;;;;;;5065921;28;20055;-69
2022/07/16 00:53:42;;;;;;;4.60;2.25;;;15.90;99.90;;;;;;5067501;28;20079;-69
2022/07/16 00:56:13;;;;;;;5.28;2.40;;;15.90;99.90;;;;;;5067647;28;20066;-69
2022/07/16 00:58:40;;;;;;;6.50;2.80;;;15.90;99.90;;;;;;5067977;28;20049;-68
2022/07/16 01:01:06;;;;;;;2.75;2.20;;;15.90;99.90;;;;;;5058923;28;20118;-69
2022/07/16 01:03:33;;;;;;;6.10;2.67;;;15.90;99.90;;;;;;5066376;28;20051;-69
2022/07/16 01:06:00;;;;;;;6.45;2.67;;;16.00;99.90;;;;;;5067035;28;20135;-69
2022/07/16 01:08:27;;;;;;;4.60;2.42;;;16.00;99.90;;;;;;5067036;28;20052;-69
2022/07/16 01:10:54;;;;;;;4.57;2.70;;;16.10;99.90;;;;;;5067323;28;20041;-69
2022/07/16 01:13:21;;;;;;;3.65;2.40;;;16.00;99.90;;;;;;5067423;28;20045;-69
2022/07/16 01:15:47;;;;;;;5.45;3.80;;;16.10;99.90;;;;;;5084195;28;20048;-69
2022/07/16 01:18:13;;;;;;;6.53;3.08;;;16.00;99.90;;;;;;5066021;28;20147;-69
2022/07/16 01:20:39;;;;;;;4.93;3.40;;;16.00;99.90;;;;;;5066585;28;20083;-69
2022/07/16 01:23:06;;;;;;;5.30;3.42;;;16.00;99.90;;;;;;5064317;28;20091;-69
2022/07/16 01:25:32;;;;;;;5.63;3.47;;;16.00;99.90;;;;;;5065889;28;20051;-69
2022/07/16 01:27:58;;;;;;;6.93;3.47;;;16.00;99.90;;;;;;5084393;28;20046;-69
2022/07/16 01:30:24;;;;;;;6.07;3.70;;;16.00;99.90;;;;;;5066779;28;20044;-69
2022/07/16 01:32:50;;;;;;;5.88;3.45;;;16.00;99.90;;;;;;5084107;28;20098;-69
2022/07/16 01:35:15;;;;;;;9.68;4.63;;;16.00;99.90;;;;;;5065974;28;20404;-69
2022/07/16 01:37:41;;;;;;;7.13;3.90;;;16.00;99.90;;;;;;5066811;28;20048;-69
2022/07/16 01:40:07;;;;;;;6.82;3.53;;;15.90;99.90;;;;;;5065807;28;20051;-69
2022/07/16 01:42:33;;;;;;;5.38;3.60;;;15.70;99.90;;;;;;5064600;28;20040;-69
2022/07/16 01:45:00;;;;;;;5.53;3.85;;;15.60;99.90;;;;;;5065885;28;20055;-69
2022/07/16 01:47:25;;;;;;;7.10;4.63;;;15.50;99.90;;;;;;5065091;28;20052;-69
2022/07/16 01:49:51;;;;;;;6.28;4.20;;;15.30;99.90;;;;;;5045474;28;20055;-69
2022/07/16 01:52:21;;;;;;;6.55;4.68;;;15.30;99.90;;;;;;5063081;28;20044;-69
2022/07/16 01:54:52;;;;;;;7.05;4.53;;;15.20;99.90;;;;;;5083562;28;20040;-69
2022/07/16 01:57:20;;;;;;;7.88;4.68;;;15.20;99.90;;;;;;5065847;28;20048;-69
2022/07/16 01:59:47;;;;;;;8.25;4.88;;;15.10;99.90;;;;;;5084921;28;20040;-69
2022/07/16 02:02:13;;;;;;;5.13;4.20;;;15.10;99.90;;;;;;5065788;28;20229;-68
2022/07/16 02:04:40;;;;;;;8.27;4.75;;;15.10;99.90;;;;;;5083945;28;20068;-68
2022/07/16 02:07:06;;;;;;;8.57;4.90;;;15.10;99.90;;;;;;5082424;28;20044;-69
2022/07/16 02:09:32;;;;;;;7.53;4.80;;;15.00;99.90;;;;;;5083316;28;20066;-69
2022/07/16 02:11:58;;;;;;;6.88;4.38;;;15.00;99.90;;;;;;5065442;28;20040;-68
2022/07/16 02:14:23;;;;;;;10.63;4.97;;;15.10;99.90;;;;;;5064239;28;20082;-69
2022/07/16 02:16:49;;;;;;;6.03;4.30;;;15.10;99.90;;;;;;5081511;28;20053;-69
2022/07/16 02:19:15;;;;;;;7.57;4.38;;;15.00;99.90;;;;;;5066876;28;20079;-68
2022/07/16 02:21:41;;;;;;;5.00;4.07;;;15.00;99.90;;;;;;5083433;28;20052;-68
2022/07/16 02:24:07;;;;;;;5.72;4.38;;;15.00;99.90;;;;;;5083338;28;20094;-69
2022/07/16 02:26:33;;;;;;;5.97;4.32;;;15.00;99.90;;;;;;5065617;28;20052;-69
2022/07/16 02:28:59;;;;;;;5.28;4.07;;;15.00;99.90;;;;;;5065176;28;20044;-69
2022/07/16 02:31:25;;;;;;;7.15;4.07;;;15.00;99.90;;;;;;5083754;28;20090;-69
2022/07/16 02:33:50;;;;;;;6.78;4.28;;;15.00;99.90;;;;;;5084581;28;20208;-69
2022/07/16 02:36:16;;;;;;;6.85;5.07;;;15.00;99.90;;;;;;5060001;28;20049;-69
2022/07/16 02:38:42;;;;;;;7.63;4.80;;;15.00;99.90;;;;;;5048975;28;20044;-69
2022/07/16 02:41:08;;;;;;;9.00;4.88;;;15.00;99.90;;;;;;5051841;28;20049;-69
2022/07/16 02:43:33;;;;;;;8.95;5.07;;;15.10;99.90;;;;;;5064499;28;20535;-69
2022/07/16 02:45:59;;;;;;;9.25;4.93;;;15.10;99.90;;;;;;5065446;28;20040;-69
2022/07/16 02:48:25;;;;;;;6.78;4.18;;;15.00;99.90;;;;;;5066374;28;20136;-69
2022/07/16 02:50:50;;;;;;;8.35;4.57;;;15.00;99.90;;;;;;5048935;28;20048;-68
2022/07/16 02:53:16;;;;;;;6.78;3.80;;;15.00;99.90;;;;;;5064293;28;20108;-69
2022/07/16 02:55:42;;;;;;;7.22;3.20;;;15.10;99.90;;;;;;5047751;28;20101;-69
2022/07/16 02:58:07;;;;;;;6.20;3.47;;;15.10;99.90;;;;;;5070959;28;20087;-69
2022/07/16 03:00:34;;;;;;;5.22;3.33;;;15.00;99.90;;;;;;5069700;28;20033;-69
2022/07/16 03:03:00;;;;;;;8.55;3.42;;;15.00;99.90;;;;;;5052885;28;20045;-69
2022/07/16 03:05:26;;;;;;;4.95;2.92;;;15.00;99.90;;;;;;5054019;28;20062;-69
2022/07/16 03:07:52;;;;;;;6.47;2.90;;;15.00;99.90;;;;;;5072916;28;20053;-69
2022/07/16 03:10:18;;;;;;;9.30;3.10;;;15.00;99.90;;;;;;5069733;28;20218;-69
2022/07/16 03:12:44;;;;;;;6.07;2.83;;;14.90;99.90;;;;;;5070324;28;20037;-69
2022/07/16 03:15:12;;;;;;;5.22;2.58;;;15.00;99.90;;;;;;5070798;28;20063;-68
2022/07/16 03:17:41;;;;;;;10.82;2.90;;;15.10;99.90;;;;;;5063620;28;20049;-69
2022/07/16 03:20:08;;;;;;;5.90;2.72;;;15.10;99.90;;;;;;5053694;28;20036;-68
2022/07/16 03:22:34;;;;;;;8.20;2.92;;;15.00;99.90;;;;;;5071069;28;20079;-69
2022/07/16 03:25:00;;;;;;;5.50;2.88;;;15.00;99.90;;;;;;5059315;28;20048;-69
2022/07/16 03:27:25;;;;;;;5.93;2.90;;;15.00;99.90;;;;;;5051716;28;20044;-69
2022/07/16 03:29:51;;;;;;;6.20;2.78;;;15.10;99.90;;;;;;5049999;28;20044;-68
2022/07/16 03:32:17;;;;;;;10.02;2.97;;;15.00;99.90;;;;;;5069829;28;20047;-69
2022/07/16 03:34:43;;;;;;;10.10;2.78;;;15.00;99.90;;;;;;5066881;28;20119;-68
2022/07/16 03:37:08;;;;;;;7.07;2.35;;;14.90;99.90;;;;;;5068011;28;20055;-69
2022/07/16 03:39:34;;;;;;;9.98;2.75;;;14.80;99.90;;;;;;5067803;28;20049;-68
2022/07/16 03:42:00;;;;;;;6.07;2.50;;;14.80;99.90;;;;;;5068090;28;20037;-68
2022/07/16 03:44:25;;;;;;;6.18;2.90;;;14.70;99.90;;;;;;5068956;28;20045;-69
2022/07/16 03:46:51;;;;;;;7.43;2.83;;;14.70;99.90;;;;;;5068432;28;20075;-69
2022/07/16 03:49:17;;;;;;;9.50;3.17;;;14.70;99.90;;;;;;5066124;28;20061;-69
2022/07/16 03:51:43;;;;;;;6.85;2.92;;;14.70;99.90;;;;;;5067883;28;20100;-69
2022/07/16 03:54:08;;;;;;;8.55;2.67;;;14.50;99.90;;;;;;5062795;28;20051;-69
2022/07/16 03:56:34;;;;;;;5.68;2.35;;;14.50;99.90;;;;;;5051619;28;20100;-68
2022/07/16 03:59:00;;;;;;;5.57;2.60;;;14.50;99.90;;;;;;5067758;28;20051;-69
2022/07/16 04:01:26;;;;;;;9.65;3.70;;;14.40;99.90;;;;;;5066928;28;20048;-69
2022/07/16 04:03:52;;;;;;;9.48;2.97;;;14.50;99.90;;;;;;5061664;28;20394;-69
2022/07/16 04:06:18;;;;;;;9.57;3.13;;;14.40;99.90;;;;;;5068007;28;20076;-68
2022/07/16 04:08:44;;;;;;;7.30;2.70;;;14.40;99.90;;;;;;5085486;28;20048;-68
2022/07/16 04:11:10;;;;;;;7.72;3.03;;;14.40;99.90;;;;;;5085403;28;20048;-69
2022/07/16 04:13:39;;;;;;;8.40;2.90;;;14.40;99.90;;;;;;5067499;28;20146;-69
2022/07/16 04:16:06;;;;;;;8.10;2.90;;;14.40;99.90;;;;;;5067525;28;20048;-68
2022/07/16 04:18:32;;;;;;;9.75;3.35;;;14.30;99.90;;;;;;5051158;28;20036;-68
2022/07/16 04:20:58;;;;;;;9.60;3.25;;;14.30;99.90;;;;;;5085403;28;20100;-69
2022/07/16 04:23:24;;;;;;;6.68;2.88;;;14.20;99.90;;;;;;5067752;28;20047;-68
2022/07/16 04:25:50;;;;;;;5.55;2.88;;;14.20;99.90;;;;;;5086602;28;20041;-68
2022/07/16 04:28:15;;;;;;;8.07;2.65;;;14.30;99.90;;;;;;5068318;28;20108;-69
2022/07/16 04:30:41;;;;;;;7.32;3.10;;;14.40;99.90;;;;;;5070874;28;20048;-68
2022/07/16 04:33:07;;;;;;;11.63;3.40;;;14.30;99.90;;;;;;5051001;28;20053;-69
2022/07/16 04:35:32;;;;;;;9.50;2.90;;;14.30;99.90;;;;;;5086414;28;20060;-68
2022/07/16 04:37:58;;;;;;;11.55;3.10;;;14.40;99.90;;;;;;5067312;28;20071;-68
2022/07/16 04:40:24;;;;;;;5.97;2.92;;;14.40;99.90;;;;;;5066683;28;20052;-68
2022/07/16 04:42:50;;;;;;;8.10;2.70;;;14.30;99.90;;;;;;5066975;28;20511;-69
2022/07/16 04:45:16;;;;;;;8.10;2.90;;;14.30;99.90;;;;;;5066289;28;20126;-69
2022/07/16 04:47:41;;;;;;;12.98;3.15;;;14.30;99.90;;;;;;5063886;28;20404;-68
2022/07/16 04:50:08;;;;;;;6.25;2.90;;;14.40;99.90;;;;;;5066042;28;20048;-68
2022/07/16 04:52:34;;;;;;;6.43;2.70;;;14.40;99.90;;;;;;5084686;28;20045;-69
2022/07/16 04:55:00;;;;;;;8.68;4.03;;;14.50;99.90;;;;;;5085673;28;20051;-68
2022/07/16 04:57:26;;;;;;;7.22;2.95;;;14.50;99.90;;;;;;5065537;28;20048;-68
2022/07/16 04:59:52;;;;;;;6.47;2.65;;;14.40;99.90;;;;;;5066509;28;20051;-68
2022/07/16 05:05:03;;;;;;;8.80;2.85;;;14.50;99.90;;;;;;5083995;28;20047;-68
2022/07/16 05:07:29;;;;;;;6.18;2.60;;;14.60;99.90;;;;;;5086696;28;20174;-68
2022/07/16 05:09:55;;;;;;;4.95;2.58;;;14.60;99.90;;;;;;5068392;28;20037;-68
2022/07/16 05:12:20;;;;;;;7.28;2.90;;;14.70;99.90;;;;;;5066944;28;20077;-68
2022/07/16 05:14:46;;;;;;;8.95;2.70;;;14.70;99.90;;;;;;5067676;28;20055;-68
2022/07/16 05:17:12;;;;;;;7.70;2.70;;;14.70;99.90;;;;;;5077980;28;20087;-68
2022/07/16 05:19:38;;;;;;;11.68;2.95;;;14.80;99.90;;;;;;5063433;28;20124;-69
2022/07/16 05:22:05;;;;;;;8.13;2.35;;;14.80;99.90;;;;;;5065317;28;20045;-69
2022/07/16 05:24:32;;;;;;;8.13;2.30;;;14.80;99.90;;;;;;5066448;28;20110;-68
2022/07/16 05:26:58;;;;;;;11.45;2.95;;;15.00;99.90;;;;;;5066771;28;20048;-68
2022/07/16 05:29:24;;;;;;;7.85;2.90;;;15.00;99.90;;;;;;5067054;28;20083;-68
2022/07/16 05:31:50;;;;;;;4.18;2.25;;;15.10;99.90;;;;;;5066054;28;20044;-68
2022/07/16 05:34:16;;;;;;;8.50;2.40;;;15.10;99.90;;;;;;5085178;28;20041;-69
2022/07/16 05:36:41;;;;;;;7.07;2.50;;;15.10;99.90;;;;;;5066212;28;20104;-69
2022/07/16 05:39:07;;;;;;;9.45;3.22;;;15.10;99.90;;;;;;5066506;28;20067;-69
2022/07/16 05:41:33;;;;;;;4.57;2.00;;;15.10;99.90;;;;;;5066175;28;20060;-68
2022/07/16 05:44:00;;;;;;;4.93;1.80;;;15.10;99.90;;;;;;5065748;28;20434;-68
2022/07/16 05:46:26;;;;;;;7.45;2.50;;;15.20;99.90;;;;;;5065630;28;20067;-68
2022/07/16 05:48:51;;;;;;;10.32;2.45;;;15.10;99.90;;;;;;5083677;28;20052;-69
2022/07/16 05:51:17;;;;;;;5.18;2.00;;;15.10;99.90;;;;;;5075588;28;20048;-68
2022/07/16 05:53:43;;;;;;;11.23;2.33;;;15.10;99.90;;;;;;5079314;28;20044;-68
2022/07/16 05:56:08;;;;;;;8.60;2.60;;;15.00;99.90;;;;;;5084150;28;20070;-68
2022/07/16 05:58:34;;;;;;;13.15;2.70;;;15.10;99.90;;;;;;5063770;28;20040;-69
2022/07/16 06:01:00;;;;;;;6.60;2.30;;;15.10;99.90;;;;;;5084613;28;20052;-69
2022/07/16 06:03:26;;;;;;;11.70;2.22;;;15.20;99.90;;;;;;5077253;28;20072;-69
2022/07/16 06:05:51;;;;;;;8.23;1.92;;;15.30;99.90;;;;;;5065833;28;20040;-68
2022/07/16 06:08:17;;;;;;;5.85;1.65;;;15.30;99.90;;;;;;5064255;28;20049;-68
2022/07/16 06:10:43;;;;;;;8.27;2.47;;;15.30;99.90;;;;;;5049091;28;20070;-68
2022/07/16 06:13:10;;;;;;;9.07;1.70;;;15.40;99.90;;;;;;5082214;28;20040;-69
2022/07/16 06:15:36;;;;;;;5.40;1.90;;;15.40;99.90;;;;;;5083662;28;20055;-69
2022/07/16 06:18:01;;;;;;;9.32;1.88;;;15.40;99.90;;;;;;5065439;28;20060;-69
2022/07/16 06:20:27;;;;;;;7.47;1.75;;;15.50;99.90;;;;;;5065755;28;20051;-69
2022/07/16 06:22:54;;;;;;;6.72;2.00;;;15.50;99.90;;;;;;5083247;28;20108;-69
2022/07/16 06:25:20;;;;;;;7.80;1.65;;;15.50;99.90;;;;;;5069734;28;20044;-68
2022/07/16 06:27:46;;;;;;;11.35;1.80;;;15.60;99.90;;;;;;5065830;28;20508;-68
2022/07/16 06:30:13;;;;;;;7.00;1.80;;;15.60;99.90;;;;;;5066308;28;20087;-69
2022/07/16 06:32:40;;;;;;;7.40;1.40;;;15.60;99.90;;;;;;5048693;28;20087;-68
2022/07/16 06:35:06;;;;;;;10.68;1.55;;;15.60;99.90;;;;;;5068300;28;20049;-68
2022/07/16 06:37:32;;;;;;;9.10;2.33;;;15.70;99.90;;;;;;5068670;28;20044;-68
2022/07/16 06:39:58;;;;;;;9.10;1.48;;;15.80;99.90;;;;;;5069785;28;20044;-68
2022/07/16 06:42:23;;;;;;;7.90;1.38;;;15.80;99.90;;;;;;5069093;28;20032;-68
2022/07/16 06:44:49;;;;;;;9.02;1.50;;;15.90;99.90;;;;;;5070355;28;20056;-68
2022/07/16 06:47:15;;;;;;;9.63;1.30;;;15.90;99.90;;;;;;5050196;28;20139;-68
2022/07/16 06:49:40;;;;;;;7.95;1.50;;;15.90;99.90;;;;;;5087326;28;20119;-68
2022/07/16 06:52:07;;;;;;;7.40;1.55;;;15.90;99.90;;;;;;5087834;28;20041;-68
2022/07/16 06:54:32;;;;;;;7.65;1.58;;;15.90;99.90;;;;;;5069345;28;20112;-68
2022/07/16 06:56:58;;;;;;;5.63;1.30;;;15.90;99.90;;;;;;5069053;28;20036;-68
2022/07/16 06:59:24;;;;;;;9.45;1.83;;;16.00;99.90;;;;;;5088339;28;20055;-68
2022/07/16 07:01:49;;;;;;;7.50;1.50;;;15.90;99.90;;;;;;5087871;28;20124;-68
2022/07/16 07:04:15;;;;;;;7.90;2.03;;;16.00;99.90;;;;;;5086018;28;20041;-69
2022/07/16 07:06:41;;;;;;;10.63;2.05;;;16.00;99.90;;;;;;5057772;28;20048;-68
2022/07/16 07:09:06;;;;;;;4.85;1.60;;;16.10;99.90;;;;;;5053840;28;20098;-67
2022/07/16 07:11:32;;;;;;;7.72;1.42;;;16.30;99.90;;;;;;5069083;28;20148;-67
2022/07/16 07:13:58;;;;;;;9.05;1.20;;;16.20;99.90;;;;;;5055037;28;20511;-68
2022/07/16 07:16:23;;;;;;;5.93;1.15;;;16.20;99.90;;;;;;5058961;28;20625;-68
2022/07/16 07:18:49;;;;;;;8.18;1.17;;;16.20;99.90;;;;;;5082030;28;20051;-68
2022/07/16 07:21:15;;;;;;;6.65;1.52;;;16.20;99.90;;;;;;5062739;28;20056;-68
2022/07/16 07:23:41;;;;;;;4.75;1.10;;;16.20;99.90;;;;;;5068656;28;20040;-67
2022/07/16 07:26:06;;;;;;;7.13;1.20;;;16.20;99.90;;;;;;5082990;28;20045;-68
2022/07/16 07:28:32;;;;;;;7.10;1.13;;;16.30;99.90;;;;;;5053000;28;20275;-68
2022/07/16 07:30:58;;;;;;;7.70;1.60;;;16.40;99.90;;;;;;5068691;28;20071;-69
2022/07/16 07:33:25;;;;;;;5.50;1.20;;;16.50;99.90;;;;;;5069145;28;20067;-69
2022/07/16 07:35:51;;;;;;;11.10;1.33;;;16.70;99.90;;;;;;5053662;28;20045;-69
2022/07/16 07:38:17;;;;;;;8.18;1.10;;;16.80;99.90;;;;;;5053561;28;20084;-68
2022/07/16 07:40:42;;;;;;;4.65;1.40;;;16.80;99.90;;;;;;5074021;28;20048;-67
2022/07/16 07:43:08;;;;;;;5.93;1.15;;;16.80;99.90;;;;;;5057738;28;20332;-67
2022/07/16 07:45:34;;;;;;;10.85;1.25;;;16.80;99.90;;;;;;5062041;28;20128;-67
2022/07/16 07:48:00;;;;;;;8.38;1.95;;;16.80;99.90;;;;;;5077942;28;20037;-68
2022/07/16 07:50:25;;;;;;;4.07;1.08;;;16.70;99.90;;;;;;5076354;28;20558;-68
2022/07/16 07:52:52;;;;;;;5.63;1.33;;;16.70;99.90;;;;;;5056717;28;20057;-68
2022/07/16 07:55:18;;;;;;;4.68;1.00;;;16.50;99.90;;;;;;5061906;28;20041;-66
2022/07/16 07:57:44;;;;;;;3.97;1.25;;;16.30;99.90;;;;;;5052606;28;20052;-67
2022/07/16 08:00:10;;;;;;;5.18;1.13;;;16.10;99.90;;;;;;5075584;28;20043;-68
2022/07/16 08:02:37;;;;;;;4.68;0.98;;;16.00;99.90;;;;;;5067334;28;20550;-68
2022/07/16 08:05:03;;;;;;;4.28;1.33;;;15.90;99.90;;;;;;5068443;28;20045;-67
2022/07/16 08:07:29;;;;;;;7.05;1.30;;;16.00;99.90;;;;;;5068181;28;20063;-68
2022/07/16 08:09:55;;;;;;;6.53;1.38;;;16.10;99.90;;;;;;5086541;28;20126;-72
2022/07/16 08:12:20;;;;;;;4.10;1.08;;;16.20;99.90;;;;;;5067915;28;20585;-74
2022/07/16 08:14:46;;;;;;;5.60;0.93;;;16.10;99.90;;;;;;5067569;28;20040;-72
2022/07/16 08:17:12;;;;;;;5.22;1.20;;;16.20;99.90;;;;;;5085688;28;20036;-72
2022/07/16 08:19:37;;;;;;;7.15;1.10;;;16.30;99.90;;;;;;5085457;28;20041;-74
2022/07/16 08:22:03;;;;;;;3.78;1.00;;;16.40;99.90;;;;;;5085014;28;20067;-73
2022/07/16 08:27:14;;;;;;;6.63;0.90;;;16.70;99.90;;;;;;5086471;28;20049;-71
2022/07/16 08:29:40;;;;;;;4.60;0.95;;;16.80;99.90;;;;;;5043550;28;20045;-74
2022/07/16 08:32:06;;;;;;;4.30;1.35;;;17.00;99.90;;;;;;5066402;28;20061;-74
2022/07/16 08:34:32;;;;;;;2.53;0.95;;;17.20;99.90;;;;;;5066754;28;20068;-70
2022/07/16 08:36:58;;;;;;;4.47;0.80;;;17.40;99.90;;;;;;5066243;28;20044;-79
2022/07/16 08:39:23;;;;;;;5.20;1.48;;;17.60;99.90;;;;;;5068023;28;20040;-78
2022/07/16 08:41:50;;;;;;;4.95;1.00;;;17.90;99.90;;;;;;5067533;28;20052;-73
2022/07/16 08:44:16;;;;;;;3.03;0.93;;;18.00;99.90;;;;;;5065321;28;20523;-73
2022/07/16 08:46:42;;;;;;;4.15;1.00;;;17.80;99.90;;;;;;5039526;28;20048;-74
2022/07/16 08:49:09;;;;;;;5.22;1.23;;;17.70;99.90;;;;;;5036952;28;20720;-74
2022/07/16 08:51:36;;;;;;;5.43;1.10;;;17.70;99.90;;;;;;5059752;28;20036;-75
2022/07/16 08:54:12;;;;;;;6.53;1.02;;;17.70;99.90;;;;;;5060184;28;20275;-75
2022/07/16 08:56:37;;;;;;;3.65;0.93;;;17.80;99.90;;;;;;5058721;28;20075;-74
2022/07/16 08:59:05;;;;;;;6.05;0.90;;;17.90;99.90;;;;;;5060669;28;20341;-75
2022/07/16 09:01:32;;;;;;;6.07;1.00;;;18.00;99.90;;;;;;5060581;28;20044;-75
2022/07/16 09:03:59;;;;;;;3.83;1.20;;;18.10;99.90;;;;;;5051294;28;20056;-75
2022/07/16 09:06:25;;;;;;;10.02;1.63;;;18.20;99.90;;;;;;5062312;28;20056;-71
2022/07/16 09:08:52;;;;;;;4.93;1.55;;;18.30;99.90;;;;;;5052608;28;20053;-76
2022/07/16 09:11:30;;;;;;;5.43;1.00;;;18.30;99.90;;;;;;5059597;28;20051;-76
2022/07/16 09:14:16;;;;;;;6.07;0.88;;;18.30;99.90;;;;;;5049621;28;20106;-77
2022/07/16 09:16:53;;;;;;;6.05;1.33;;;18.40;99.90;;;;;;5058207;28;20047;-71
2022/07/16 09:19:25;;;;;;;10.73;1.60;;;18.40;99.90;;;;;;5059994;28;20064;-76
2022/07/16 09:22:04;;;;;;;10.15;1.10;;;18.40;99.90;;;;;;5051699;28;20044;-77
2022/07/16 09:24:54;;;;;;;5.50;1.20;;;18.50;99.90;;;;;;5062231;28;20044;-75
2022/07/16 09:27:23;;;;;;;;;;;18.80;99.90;;;;;;5052345;28;20584;-75
2022/07/16 09:30:03;;;;;;;4.70;0.90;;;18.90;99.90;;;;;;5053928;28;19927;-74
2022/07/16 09:32:39;;;;;;;3.42;1.10;;;18.70;99.90;;;;;;5044440;28;20056;-72
2022/07/16 09:35:06;;;;;;;6.45;1.60;;;18.70;99.90;;;;;;5050680;28;20056;-73
2022/07/16 09:37:49;;;;;;;3.40;0.98;;;18.40;99.90;;;;;;5047328;28;20044;-72
2022/07/16 09:40:45;;;;;;;5.55;1.60;;;18.30;99.90;;;;;;5070335;28;20110;-72
2022/07/16 09:43:13;;;;;;;8.13;1.17;;;18.10;99.90;;;;;;5068039;28;20178;-72
2022/07/16 09:45:58;;;;;;;8.20;1.42;;;18.10;99.90;;;;;;5053901;28;20036;-72
2022/07/16 09:48:26;;;;;;;6.32;1.90;;;18.30;99.90;;;;;;5067862;28;20052;-72
2022/07/16 09:50:54;;;;;;;5.05;1.10;;;18.30;99.90;;;;;;5038895;28;20083;-70
2022/07/16 09:53:25;;;;;;;5.70;1.05;;;18.30;99.90;;;;;;5032512;28;20060;-72
2022/07/16 09:55:58;;;;;;;8.73;1.20;;;18.30;99.90;;;;;;5064632;28;20040;-71
2022/07/16 09:58:24;;;;;;;6.00;1.55;;;18.10;99.90;;;;;;5065473;28;20361;-72
2022/07/16 10:00:50;;;;;;;6.88;1.20;;;18.00;99.90;;;;;;5065535;28;20120;-72
2022/07/16 10:03:16;;;;;;;5.15;1.40;;;18.10;99.90;;;;;;5057254;28;20052;-71
2022/07/16 10:05:42;;;;;;;4.38;1.92;;;18.20;99.90;;;;;;5047713;28;20044;-71
2022/07/16 10:08:08;;;;;;;4.90;1.73;;;18.40;99.90;;;;;;5066293;28;20056;-71
2022/07/16 10:10:33;;;;;;;7.53;1.23;;;18.50;99.90;;;;;;5049349;28;20515;-72
2022/07/16 10:12:59;;;;;;;6.05;1.50;;;18.90;99.90;;;;;;5047450;28;20049;-72
2022/07/16 10:15:25;;;;;;;6.10;1.02;;;18.90;99.90;;;;;;5048738;28;20321;-70
2022/07/16 10:17:52;;;;;;;11.38;1.70;;;18.90;99.90;;;;;;5050285;28;20044;-72
2022/07/16 10:20:19;;;;;;;5.80;1.27;;;18.90;99.90;;;;;;5055067;28;20393;-72
2022/07/16 10:22:48;;;;;;;4.28;1.17;;;18.70;99.90;;;;;;5049679;28;20578;-72
2022/07/16 10:25:26;;;;;;;7.25;1.60;;;18.70;99.90;;;;;;5059107;28;20036;-72
2022/07/16 10:27:53;;;;;;;3.97;1.20;;;18.30;99.90;;;;;;5060116;28;20048;-72
2022/07/16 10:30:22;;;;;;;6.00;1.52;;;18.40;99.90;;;;;;5044389;28;20079;-71
2022/07/16 10:33:00;;;;;;;6.95;0.90;;;18.70;99.90;;;;;;5029522;28;20060;-72
2022/07/16 10:35:38;;;;;;;6.38;1.50;;;19.10;99.90;;;;;;5048856;28;20057;-71
2022/07/16 10:38:12;;;;;;;10.18;1.60;;;19.20;99.90;;;;;;5049194;28;20049;-72
2022/07/16 10:40:40;;;;;;;6.78;1.60;;;19.40;99.90;;;;;;5047912;28;20059;-70
2022/07/16 10:43:12;;;;;;;5.78;1.40;;;19.40;99.90;;;;;;5059568;28;20052;-72
2022/07/16 10:46:00;;;;;;;7.15;1.38;;;19.30;99.90;;;;;;5069287;28;20040;-72
2022/07/16 10:48:28;;;;;;;7.93;1.23;;;19.20;99.90;;;;;;5037687;28;20045;-71
2022/07/16 10:51:12;;;;;;;7.13;1.38;;;19.20;99.90;;;;;;5059454;28;20044;-71
2022/07/16 10:53:56;;;;;;;7.00;1.55;;;19.20;99.90;;;;;;5051494;28;20445;-74
2022/07/16 10:56:35;;;;;;;6.18;1.15;;;19.20;99.90;;;;;;5045382;28;20519;-73
2022/07/16 10:59:07;;;;;;;5.60;1.43;;;19.30;99.90;;;;;;5027370;28;20056;-76
2022/07/16 11:01:35;;;;;;;7.22;1.30;;;19.50;99.90;;;;;;5063194;28;20052;-73
2022/07/16 11:04:02;;;;;;;4.47;1.20;;;19.70;99.90;;;;;;5016620;28;20521;-73
2022/07/16 11:06:29;;;;;;;4.45;1.20;;;20.00;99.90;;;;;;5019233;28;20050;-74
2022/07/16 11:08:56;;;;;;;4.75;1.00;;;19.90;99.90;;;;;;5050236;28;20076;-73
2022/07/16 11:11:22;;;;;;;2.85;0.90;;;20.00;99.90;;;;;;5052102;28;20039;-73
2022/07/16 11:13:58;;;;;;;5.10;1.25;;;19.90;99.90;;;;;;5032248;28;20049;-73
2022/07/16 11:16:24;;;;;;;4.38;0.85;;;19.90;99.90;;;;;;5053589;28;20041;-72
2022/07/16 11:18:49;;;;;;;3.80;1.13;;;19.90;99.90;;;;;;5034674;28;20049;-73
2022/07/16 11:21:15;;;;;;;3.78;1.40;;;20.00;99.90;;;;;;5073586;28;20060;-73
2022/07/16 11:24:01;;;;;;;5.80;0.93;;;20.20;99.90;;;;;;5037580;28;20050;-73
2022/07/16 11:26:30;;;;;;;7.43;1.10;;;20.20;99.90;;;;;;5038160;28;20045;-73
2022/07/16 11:29:01;;;;;;;15.82;2.95;;;20.30;99.90;;;;;;5075797;28;20089;-73
2022/07/16 11:31:35;;;;;;;12.48;2.33;;;20.50;99.90;;;;;;5058476;28;20044;-73
2022/07/16 11:34:04;;;;;;;14.60;2.30;;;20.60;99.90;;;;;;5057600;28;20048;-73
2022/07/16 11:36:41;;;;;;;6.97;1.15;;;20.50;99.90;;;;;;5049939;28;20076;-73
2022/07/16 11:39:09;;;;;;;13.43;2.67;;;20.70;99.90;;;;;;5010838;28;20148;-73
2022/07/16 11:41:41;;;;;;;4.75;1.20;;;20.60;99.90;;;;;;5041445;28;20105;-73
2022/07/16 11:44:16;;;;;;;4.45;1.27;;;20.90;99.90;;;;;;5042681;28;20068;-73
2022/07/16 11:46:50;;;;;;;3.55;1.00;;;20.70;99.90;;;;;;5046651;28;20041;-73
2022/07/16 11:49:22;;;;;;;4.95;1.10;;;20.70;99.90;;;;;;5028297;28;20049;-72
2022/07/16 11:51:48;;;;;;;4.95;1.55;;;20.50;99.90;;;;;;5057746;28;20045;-72
2022/07/16 11:54:14;;;;;;;6.47;1.20;;;20.80;99.90;;;;;;5013931;28;20145;-72
2022/07/16 11:56:41;;;;;;;5.25;1.05;;;21.10;99.90;;;;;;5044134;28;20072;-72
2022/07/16 11:59:27;;;;;;;5.28;1.55;;;21.30;99.90;;;;;;5027882;28;20178;-72
2022/07/16 12:02:13;;;;;;;3.53;1.02;;;21.30;99.90;;;;;;5037922;28;20042;-73
2022/07/16 12:04:59;;;;;;;7.55;1.50;;;20.90;99.90;;;;;;5028700;28;20063;-71
2022/07/16 12:07:24;;;;;;;3.53;0.80;;;20.80;99.90;;;;;;5042463;28;20044;-72
2022/07/16 12:09:54;;;;;;;5.00;1.10;;;20.90;99.90;;;;;;5020808;28;20045;-72
2022/07/16 12:12:23;;;;;;;6.22;1.48;;;21.00;99.90;;;;;;5022770;28;20037;-72
2022/07/16 12:14:54;;;;;;;4.03;1.20;;;21.10;99.90;;;;;;5043884;28;20051;-72
2022/07/16 12:17:22;;;;;;;6.32;0.93;;;20.90;99.80;;;;;;5043249;28;20044;-72
2022/07/16 12:20:13;;;;;;;5.30;0.95;;;20.70;99.90;;;;;;5011949;28;20057;-72
2022/07/16 12:22:59;;;;;;;4.13;0.93;;;20.40;99.90;;;;;;5003395;28;20617;-73
2022/07/16 12:25:28;;;;;;;5.78;1.13;;;20.10;99.80;;;;;;5037443;28;20469;-72
2022/07/16 12:27:59;;;;;;;7.45;1.45;;;20.10;99.90;;;;;;5028390;28;20528;-72
2022/07/16 12:30:37;;;;;;;4.03;1.05;;;20.40;99.90;;;;;;4998185;28;20052;-72
2022/07/16 12:33:23;;;;;;;5.22;1.88;;;20.70;99.90;;;;;;5020762;28;20053;-74
2022/07/16 12:35:51;;;;;;;3.08;1.00;;;20.90;99.90;;;;;;5022249;28;20045;-74
2022/07/16 12:38:37;;;;;;;5.38;1.52;;;21.10;99.90;;;;;;5054501;28;20048;-73
2022/07/16 12:41:04;;;;;;;5.55;1.27;;;21.00;99.90;;;;;;5056342;28;20059;-74
2022/07/16 12:43:30;;;;;;;5.93;1.48;;;20.80;99.90;;;;;;5047278;28;20040;-74
2022/07/16 12:45:56;;;;;;;6.80;1.33;;;20.60;99.90;;;;;;5058919;28;20405;-75
2022/07/16 12:48:21;;;;;;;5.38;1.40;;;20.70;99.90;;;;;;5054518;28;20598;-73
2022/07/16 12:50:47;;;;;;;8.60;1.30;;;21.00;99.90;;;;;;5050389;28;20049;-74
2022/07/16 12:53:13;;;;;;;8.45;1.60;;;21.40;99.90;;;;;;5043539;28;20483;-74
2022/07/16 13:01:07;;;;;;;6.05;1.55;;;21.50;99.90;;;;;;5052922;28;20049;-74